sensor_id;sensor_type;location;lat;lon;timestamp;P1;durP1;ratioP1;P2;durP2;ratioP2
45434;SDS011;31183;47.404;8.500;2024-01-27T00:00:48;1.65;;;1.55;;
45434;SDS011;31183;47.404;8.500;2024-01-27T00:03:16;3.00;;;1.52;;
45434;SDS011;31183;47.404;8.500;2024-01-27T00:05:43;4.80;;;1.88;;
45434;SDS011;31183;47.404;8.500;2024-01-27T00:08:10;4.15;;;1.58;;
45434;SDS011;31183;47.404;8.500;2024-01-27T00:10:36;2.67;;;1.60;;
45434;SDS011;31183;47.404;8.500;2024-01-27T00:13:03;2.33;;;1.80;;
45434;SDS011;31183;47.404;8.500;2024-01-27T00:15:30;4.03;;;1.70;;
45434;SDS011;31183;47.404;8.500;2024-01-27T00:17:57;6.25;;;1.90;;
45434;SDS011;31183;47.404;8.500;2024-01-27T00:20:23;3.10;;;1.77;;
45434;SDS011;31183;47.404;8.500;2024-01-27T00:22:50;2.35;;;1.60;;
45434;SDS011;31183;47.404;8.500;2024-01-27T00:25:17;3.60;;;1.45;;
45434;SDS011;31183;47.404;8.500;2024-01-27T00:27:43;3.65;;;1.58;;
45434;SDS011;31183;47.404;8.500;2024-01-27T00:30:10;2.10;;;1.48;;
45434;SDS011;31183;47.404;8.500;2024-01-27T00:32:37;3.80;;;1.38;;
45434;SDS011;31183;47.404;8.500;2024-01-27T00:35:04;2.85;;;1.52;;
45434;SDS011;31183;47.404;8.500;2024-01-27T00:37:33;3.53;;;1.40;;
45434;SDS011;31183;47.404;8.500;2024-01-27T00:40:00;3.78;;;1.40;;
45434;SDS011;31183;47.404;8.500;2024-01-27T00:42:26;1.63;;;1.30;;
45434;SDS011;31183;47.404;8.500;2024-01-27T00:44:53;4.30;;;1.55;;
45434;SDS011;31183;47.404;8.500;2024-01-27T00:47:20;2.38;;;1.40;;
45434;SDS011;31183;47.404;8.500;2024-01-27T00:49:47;5.78;;;1.55;;
45434;SDS011;31183;47.404;8.500;2024-01-27T00:52:13;5.78;;;1.58;;
45434;SDS011;31183;47.404;8.500;2024-01-27T00:54:40;3.88;;;1.50;;
45434;SDS011;31183;47.404;8.500;2024-01-27T00:57:07;5.30;;;1.95;;
45434;SDS011;31183;47.404;8.500;2024-01-27T00:59:33;3.00;;;1.58;;
45434;SDS011;31183;47.404;8.500;2024-01-27T01:02:00;4.30;;;1.60;;
45434;SDS011;31183;47.404;8.500;2024-01-27T01:04:27;5.30;;;1.75;;
45434;SDS011;31183;47.404;8.500;2024-01-27T01:06:53;4.72;;;1.77;;
45434;SDS011;31183;47.404;8.500;2024-01-27T01:09:20;1.58;;;1.10;;
45434;SDS011;31183;47.404;8.500;2024-01-27T01:11:47;3.67;;;1.17;;
45434;SDS011;31183;47.404;8.500;2024-01-27T01:14:14;4.63;;;1.75;;
45434;SDS011;31183;47.404;8.500;2024-01-27T01:16:40;6.65;;;1.50;;
45434;SDS011;31183;47.404;8.500;2024-01-27T01:19:07;5.70;;;1.55;;
45434;SDS011;31183;47.404;8.500;2024-01-27T01:21:34;3.28;;;2.15;;
45434;SDS011;31183;47.404;8.500;2024-01-27T01:24:01;6.78;;;1.65;;
45434;SDS011;31183;47.404;8.500;2024-01-27T01:26:28;4.32;;;1.85;;
45434;SDS011;31183;47.404;8.500;2024-01-27T01:28:54;3.47;;;2.28;;
45434;SDS011;31183;47.404;8.500;2024-01-27T01:31:21;5.38;;;1.58;;
45434;SDS011;31183;47.404;8.500;2024-01-27T01:33:48;5.70;;;1.98;;
45434;SDS011;31183;47.404;8.500;2024-01-27T01:36:15;5.80;;;1.80;;
45434;SDS011;31183;47.404;8.500;2024-01-27T01:38:42;6.97;;;2.97;;
45434;SDS011;31183;47.404;8.500;2024-01-27T01:41:08;4.65;;;1.92;;
45434;SDS011;31183;47.404;8.500;2024-01-27T01:43:35;9.35;;;2.00;;
45434;SDS011;31183;47.404;8.500;2024-01-27T01:46:02;8.30;;;1.98;;
45434;SDS011;31183;47.404;8.500;2024-01-27T01:48:29;5.35;;;1.65;;
45434;SDS011;31183;47.404;8.500;2024-01-27T01:50:56;5.60;;;1.73;;
45434;SDS011;31183;47.404;8.500;2024-01-27T01:53:26;3.70;;;1.80;;
45434;SDS011;31183;47.404;8.500;2024-01-27T01:55:52;4.80;;;1.83;;
45434;SDS011;31183;47.404;8.500;2024-01-27T01:58:19;5.05;;;1.80;;
45434;SDS011;31183;47.404;8.500;2024-01-27T02:00:46;4.35;;;1.45;;
45434;SDS011;31183;47.404;8.500;2024-01-27T02:03:13;6.45;;;1.67;;
45434;SDS011;31183;47.404;8.500;2024-01-27T02:05:40;4.07;;;1.98;;
45434;SDS011;31183;47.404;8.500;2024-01-27T02:08:07;4.22;;;1.75;;
45434;SDS011;31183;47.404;8.500;2024-01-27T02:10:34;6.60;;;1.90;;
45434;SDS011;31183;47.404;8.500;2024-01-27T02:13:14;3.58;;;1.65;;
45434;SDS011;31183;47.404;8.500;2024-01-27T02:15:46;4.10;;;2.15;;
45434;SDS011;31183;47.404;8.500;2024-01-27T02:18:14;5.53;;;1.90;;
45434;SDS011;31183;47.404;8.500;2024-01-27T02:20:41;6.90;;;2.28;;
45434;SDS011;31183;47.404;8.500;2024-01-27T02:23:08;6.72;;;3.70;;
45434;SDS011;31183;47.404;8.500;2024-01-27T02:25:35;6.95;;;2.17;;
45434;SDS011;31183;47.404;8.500;2024-01-27T02:28:02;7.32;;;2.20;;
45434;SDS011;31183;47.404;8.500;2024-01-27T02:30:29;5.28;;;1.98;;
45434;SDS011;31183;47.404;8.500;2024-01-27T02:32:56;4.28;;;1.77;;
45434;SDS011;31183;47.404;8.500;2024-01-27T02:35:24;4.70;;;1.98;;
45434;SDS011;31183;47.404;8.500;2024-01-27T02:37:51;3.67;;;1.90;;
45434;SDS011;31183;47.404;8.500;2024-01-27T02:40:18;8.90;;;2.00;;
45434;SDS011;31183;47.404;8.500;2024-01-27T02:42:44;2.67;;;1.48;;
45434;SDS011;31183;47.404;8.500;2024-01-27T02:45:11;9.05;;;1.90;;
45434;SDS011;31183;47.404;8.500;2024-01-27T02:47:38;8.15;;;1.65;;
45434;SDS011;31183;47.404;8.500;2024-01-27T02:50:05;5.18;;;1.92;;
45434;SDS011;31183;47.404;8.500;2024-01-27T02:52:32;2.97;;;1.80;;
45434;SDS011;31183;47.404;8.500;2024-01-27T02:54:59;5.03;;;1.90;;
45434;SDS011;31183;47.404;8.500;2024-01-27T02:57:26;4.60;;;1.90;;
45434;SDS011;31183;47.404;8.500;2024-01-27T02:59:53;3.88;;;1.95;;
45434;SDS011;31183;47.404;8.500;2024-01-27T03:02:20;7.38;;;2.60;;
45434;SDS011;31183;47.404;8.500;2024-01-27T03:04:46;2.47;;;1.65;;
45434;SDS011;31183;47.404;8.500;2024-01-27T03:07:13;4.07;;;1.83;;
45434;SDS011;31183;47.404;8.500;2024-01-27T03:09:40;3.90;;;1.88;;
45434;SDS011;31183;47.404;8.500;2024-01-27T03:12:06;5.45;;;1.98;;
45434;SDS011;31183;47.404;8.500;2024-01-27T03:14:33;9.13;;;2.40;;
45434;SDS011;31183;47.404;8.500;2024-01-27T03:17:00;2.55;;;1.70;;
45434;SDS011;31183;47.404;8.500;2024-01-27T03:19:27;2.97;;;1.98;;
45434;SDS011;31183;47.404;8.500;2024-01-27T03:21:54;2.70;;;1.50;;
45434;SDS011;31183;47.404;8.500;2024-01-27T03:24:20;7.00;;;2.88;;
45434;SDS011;31183;47.404;8.500;2024-01-27T03:26:47;2.55;;;1.60;;
45434;SDS011;31183;47.404;8.500;2024-01-27T03:29:14;9.02;;;1.98;;
45434;SDS011;31183;47.404;8.500;2024-01-27T03:31:41;4.07;;;1.80;;
45434;SDS011;31183;47.404;8.500;2024-01-27T03:34:07;5.88;;;1.75;;
45434;SDS011;31183;47.404;8.500;2024-01-27T03:36:34;2.75;;;1.35;;
45434;SDS011;31183;47.404;8.500;2024-01-27T03:39:01;5.38;;;2.13;;
45434;SDS011;31183;47.404;8.500;2024-01-27T03:41:29;3.25;;;1.42;;
45434;SDS011;31183;47.404;8.500;2024-01-27T03:43:56;8.48;;;4.22;;
45434;SDS011;31183;47.404;8.500;2024-01-27T03:46:22;10.50;;;5.45;;
45434;SDS011;31183;47.404;8.500;2024-01-27T03:48:49;6.07;;;3.10;;
45434;SDS011;31183;47.404;8.500;2024-01-27T03:51:16;4.88;;;2.97;;
45434;SDS011;31183;47.404;8.500;2024-01-27T03:53:42;6.85;;;2.47;;
45434;SDS011;31183;47.404;8.500;2024-01-27T03:56:12;4.63;;;2.55;;
45434;SDS011;31183;47.404;8.500;2024-01-27T03:58:39;4.38;;;1.80;;
45434;SDS011;31183;47.404;8.500;2024-01-27T04:01:06;4.70;;;1.90;;
45434;SDS011;31183;47.404;8.500;2024-01-27T04:03:32;5.22;;;2.00;;
45434;SDS011;31183;47.404;8.500;2024-01-27T04:05:59;4.78;;;1.83;;
45434;SDS011;31183;47.404;8.500;2024-01-27T04:08:31;5.47;;;1.80;;
45434;SDS011;31183;47.404;8.500;2024-01-27T04:10:58;5.35;;;2.17;;
45434;SDS011;31183;47.404;8.500;2024-01-27T04:13:24;5.10;;;1.73;;
45434;SDS011;31183;47.404;8.500;2024-01-27T04:15:51;6.35;;;2.35;;
45434;SDS011;31183;47.404;8.500;2024-01-27T04:18:20;6.30;;;3.13;;
45434;SDS011;31183;47.404;8.500;2024-01-27T04:20:47;5.05;;;1.80;;
45434;SDS011;31183;47.404;8.500;2024-01-27T04:23:15;8.68;;;2.25;;
45434;SDS011;31183;47.404;8.500;2024-01-27T04:25:42;5.18;;;1.88;;
45434;SDS011;31183;47.404;8.500;2024-01-27T04:28:09;8.68;;;2.25;;
45434;SDS011;31183;47.404;8.500;2024-01-27T04:30:38;4.40;;;2.08;;
45434;SDS011;31183;47.404;8.500;2024-01-27T04:33:05;5.50;;;1.98;;
45434;SDS011;31183;47.404;8.500;2024-01-27T04:35:33;6.55;;;3.17;;
45434;SDS011;31183;47.404;8.500;2024-01-27T04:38:00;3.13;;;2.05;;
45434;SDS011;31183;47.404;8.500;2024-01-27T04:40:27;7.57;;;2.78;;
45434;SDS011;31183;47.404;8.500;2024-01-27T04:42:54;3.03;;;1.75;;
45434;SDS011;31183;47.404;8.500;2024-01-27T04:45:20;5.03;;;2.13;;
45434;SDS011;31183;47.404;8.500;2024-01-27T04:47:47;4.22;;;1.80;;
45434;SDS011;31183;47.404;8.500;2024-01-27T04:50:14;4.55;;;2.05;;
45434;SDS011;31183;47.404;8.500;2024-01-27T04:52:41;3.70;;;2.20;;
45434;SDS011;31183;47.404;8.500;2024-01-27T04:55:07;4.75;;;3.05;;
45434;SDS011;31183;47.404;8.500;2024-01-27T04:57:34;4.72;;;2.22;;
45434;SDS011;31183;47.404;8.500;2024-01-27T05:00:01;5.85;;;1.92;;
45434;SDS011;31183;47.404;8.500;2024-01-27T05:02:28;2.75;;;2.00;;
45434;SDS011;31183;47.404;8.500;2024-01-27T05:04:54;7.22;;;4.18;;
45434;SDS011;31183;47.404;8.500;2024-01-27T05:07:21;7.10;;;3.10;;
45434;SDS011;31183;47.404;8.500;2024-01-27T05:09:48;6.50;;;2.33;;
45434;SDS011;31183;47.404;8.500;2024-01-27T05:12:15;5.93;;;2.03;;
45434;SDS011;31183;47.404;8.500;2024-01-27T05:14:44;7.50;;;2.30;;
45434;SDS011;31183;47.404;8.500;2024-01-27T05:17:11;6.50;;;2.20;;
45434;SDS011;31183;47.404;8.500;2024-01-27T05:19:38;5.53;;;2.30;;
45434;SDS011;31183;47.404;8.500;2024-01-27T05:22:05;9.43;;;2.50;;
45434;SDS011;31183;47.404;8.500;2024-01-27T05:24:32;7.85;;;2.45;;
45434;SDS011;31183;47.404;8.500;2024-01-27T05:26:59;12.15;;;2.38;;
45434;SDS011;31183;47.404;8.500;2024-01-27T05:29:27;8.57;;;2.55;;
45434;SDS011;31183;47.404;8.500;2024-01-27T05:31:54;5.05;;;2.10;;
45434;SDS011;31183;47.404;8.500;2024-01-27T05:34:20;10.65;;;3.22;;
45434;SDS011;31183;47.404;8.500;2024-01-27T05:36:47;5.38;;;2.33;;
45434;SDS011;31183;47.404;8.500;2024-01-27T05:39:14;6.95;;;2.50;;
45434;SDS011;31183;47.404;8.500;2024-01-27T05:41:40;4.15;;;2.38;;
45434;SDS011;31183;47.404;8.500;2024-01-27T05:44:07;4.53;;;2.10;;
45434;SDS011;31183;47.404;8.500;2024-01-27T05:46:33;5.03;;;1.95;;
45434;SDS011;31183;47.404;8.500;2024-01-27T05:49:00;4.50;;;2.30;;
45434;SDS011;31183;47.404;8.500;2024-01-27T05:51:29;4.60;;;3.00;;
45434;SDS011;31183;47.404;8.500;2024-01-27T05:53:56;4.85;;;2.50;;
45434;SDS011;31183;47.404;8.500;2024-01-27T05:56:23;4.90;;;2.13;;
45434;SDS011;31183;47.404;8.500;2024-01-27T05:58:50;6.20;;;2.78;;
45434;SDS011;31183;47.404;8.500;2024-01-27T06:01:19;4.78;;;2.55;;
45434;SDS011;31183;47.404;8.500;2024-01-27T06:03:46;6.15;;;2.90;;
45434;SDS011;31183;47.404;8.500;2024-01-27T06:06:13;5.13;;;2.30;;
45434;SDS011;31183;47.404;8.500;2024-01-27T06:08:40;5.65;;;2.55;;
45434;SDS011;31183;47.404;8.500;2024-01-27T06:11:07;6.18;;;2.60;;
45434;SDS011;31183;47.404;8.500;2024-01-27T06:13:36;6.20;;;2.38;;
45434;SDS011;31183;47.404;8.500;2024-01-27T06:16:07;6.28;;;2.42;;
45434;SDS011;31183;47.404;8.500;2024-01-27T06:18:37;5.15;;;2.60;;
45434;SDS011;31183;47.404;8.500;2024-01-27T06:21:05;3.78;;;2.38;;
45434;SDS011;31183;47.404;8.500;2024-01-27T06:23:32;3.97;;;2.38;;
45434;SDS011;31183;47.404;8.500;2024-01-27T06:25:59;6.65;;;2.63;;
45434;SDS011;31183;47.404;8.500;2024-01-27T06:28:29;5.65;;;2.30;;
45434;SDS011;31183;47.404;8.500;2024-01-27T06:30:56;4.93;;;2.30;;
45434;SDS011;31183;47.404;8.500;2024-01-27T06:33:24;4.95;;;2.85;;
45434;SDS011;31183;47.404;8.500;2024-01-27T06:35:50;4.82;;;3.05;;
45434;SDS011;31183;47.404;8.500;2024-01-27T06:38:17;4.13;;;2.67;;
45434;SDS011;31183;47.404;8.500;2024-01-27T06:40:44;4.07;;;2.33;;
45434;SDS011;31183;47.404;8.500;2024-01-27T06:43:12;6.05;;;2.63;;
45434;SDS011;31183;47.404;8.500;2024-01-27T06:45:39;5.43;;;2.60;;
45434;SDS011;31183;47.404;8.500;2024-01-27T06:48:06;4.05;;;2.70;;
45434;SDS011;31183;47.404;8.500;2024-01-27T06:50:33;5.40;;;2.38;;
45434;SDS011;31183;47.404;8.500;2024-01-27T06:53:00;5.90;;;2.72;;
45434;SDS011;31183;47.404;8.500;2024-01-27T06:55:27;6.22;;;2.83;;
45434;SDS011;31183;47.404;8.500;2024-01-27T06:57:54;8.38;;;2.78;;
45434;SDS011;31183;47.404;8.500;2024-01-27T07:00:21;8.45;;;2.92;;
45434;SDS011;31183;47.404;8.500;2024-01-27T07:02:48;5.50;;;2.78;;
45434;SDS011;31183;47.404;8.500;2024-01-27T07:05:14;8.23;;;2.90;;
45434;SDS011;31183;47.404;8.500;2024-01-27T07:07:41;9.20;;;2.85;;
45434;SDS011;31183;47.404;8.500;2024-01-27T07:10:08;9.80;;;3.50;;
45434;SDS011;31183;47.404;8.500;2024-01-27T07:12:35;6.22;;;2.72;;
45434;SDS011;31183;47.404;8.500;2024-01-27T07:15:02;5.03;;;2.70;;
45434;SDS011;31183;47.404;8.500;2024-01-27T07:17:29;4.97;;;3.17;;
45434;SDS011;31183;47.404;8.500;2024-01-27T07:19:56;6.72;;;3.15;;
45434;SDS011;31183;47.404;8.500;2024-01-27T07:22:23;5.68;;;2.83;;
45434;SDS011;31183;47.404;8.500;2024-01-27T07:24:50;6.43;;;3.00;;
45434;SDS011;31183;47.404;8.500;2024-01-27T07:27:18;5.18;;;2.90;;
45434;SDS011;31183;47.404;8.500;2024-01-27T07:29:45;6.70;;;3.38;;
45434;SDS011;31183;47.404;8.500;2024-01-27T07:32:12;10.30;;;4.65;;
45434;SDS011;31183;47.404;8.500;2024-01-27T07:34:40;7.32;;;3.15;;
45434;SDS011;31183;47.404;8.500;2024-01-27T07:37:08;8.88;;;2.65;;
45434;SDS011;31183;47.404;8.500;2024-01-27T07:39:34;9.02;;;3.45;;
45434;SDS011;31183;47.404;8.500;2024-01-27T07:42:01;6.60;;;3.00;;
45434;SDS011;31183;47.404;8.500;2024-01-27T07:44:28;10.77;;;3.42;;
45434;SDS011;31183;47.404;8.500;2024-01-27T07:46:55;6.70;;;2.95;;
45434;SDS011;31183;47.404;8.500;2024-01-27T07:49:21;6.45;;;3.55;;
45434;SDS011;31183;47.404;8.500;2024-01-27T07:51:48;6.40;;;3.20;;
45434;SDS011;31183;47.404;8.500;2024-01-27T07:54:14;7.88;;;3.08;;
45434;SDS011;31183;47.404;8.500;2024-01-27T07:56:41;6.32;;;2.85;;
45434;SDS011;31183;47.404;8.500;2024-01-27T07:59:08;4.68;;;3.10;;
45434;SDS011;31183;47.404;8.500;2024-01-27T08:01:40;8.27;;;3.47;;
45434;SDS011;31183;47.404;8.500;2024-01-27T08:04:07;6.13;;;3.00;;
45434;SDS011;31183;47.404;8.500;2024-01-27T08:06:34;9.05;;;3.15;;
45434;SDS011;31183;47.404;8.500;2024-01-27T08:09:12;3.45;;;2.60;;
45434;SDS011;31183;47.404;8.500;2024-01-27T08:11:39;6.97;;;3.05;;
45434;SDS011;31183;47.404;8.500;2024-01-27T08:14:05;6.90;;;3.50;;
45434;SDS011;31183;47.404;8.500;2024-01-27T08:16:32;6.43;;;3.35;;
45434;SDS011;31183;47.404;8.500;2024-01-27T08:18:59;6.30;;;3.15;;
45434;SDS011;31183;47.404;8.500;2024-01-27T08:21:26;7.50;;;2.85;;
45434;SDS011;31183;47.404;8.500;2024-01-27T08:23:53;9.23;;;3.83;;
45434;SDS011;31183;47.404;8.500;2024-01-27T08:26:19;5.07;;;2.90;;
45434;SDS011;31183;47.404;8.500;2024-01-27T08:28:47;7.25;;;3.28;;
45434;SDS011;31183;47.404;8.500;2024-01-27T08:31:13;6.47;;;3.17;;
45434;SDS011;31183;47.404;8.500;2024-01-27T08:33:40;6.63;;;3.75;;
45434;SDS011;31183;47.404;8.500;2024-01-27T08:36:07;7.18;;;4.00;;
45434;SDS011;31183;47.404;8.500;2024-01-27T08:38:34;10.50;;;4.13;;
45434;SDS011;31183;47.404;8.500;2024-01-27T08:41:01;4.13;;;2.85;;
45434;SDS011;31183;47.404;8.500;2024-01-27T08:43:28;5.80;;;3.30;;
45434;SDS011;31183;47.404;8.500;2024-01-27T08:45:54;8.15;;;3.30;;
45434;SDS011;31183;47.404;8.500;2024-01-27T08:48:22;7.07;;;3.22;;
45434;SDS011;31183;47.404;8.500;2024-01-27T08:50:50;5.95;;;2.80;;
45434;SDS011;31183;47.404;8.500;2024-01-27T08:53:16;5.53;;;2.97;;
45434;SDS011;31183;47.404;8.500;2024-01-27T08:55:43;6.32;;;3.20;;
45434;SDS011;31183;47.404;8.500;2024-01-27T08:58:10;7.68;;;2.92;;
45434;SDS011;31183;47.404;8.500;2024-01-27T09:00:36;5.88;;;2.90;;
45434;SDS011;31183;47.404;8.500;2024-01-27T09:03:03;5.50;;;2.85;;
45434;SDS011;31183;47.404;8.500;2024-01-27T09:05:31;7.53;;;3.70;;
45434;SDS011;31183;47.404;8.500;2024-01-27T09:07:58;7.13;;;3.28;;
45434;SDS011;31183;47.404;8.500;2024-01-27T09:10:25;6.13;;;3.42;;
45434;SDS011;31183;47.404;8.500;2024-01-27T09:12:51;7.68;;;3.47;;
45434;SDS011;31183;47.404;8.500;2024-01-27T09:15:18;5.05;;;3.67;;
45434;SDS011;31183;47.404;8.500;2024-01-27T09:17:45;4.43;;;3.22;;
45434;SDS011;31183;47.404;8.500;2024-01-27T09:20:11;5.28;;;3.58;;
45434;SDS011;31183;47.404;8.500;2024-01-27T09:22:38;5.63;;;3.60;;
45434;SDS011;31183;47.404;8.500;2024-01-27T09:25:05;7.13;;;3.40;;
45434;SDS011;31183;47.404;8.500;2024-01-27T09:27:32;6.95;;;3.60;;
45434;SDS011;31183;47.404;8.500;2024-01-27T09:30:00;6.10;;;3.75;;
45434;SDS011;31183;47.404;8.500;2024-01-27T09:32:26;6.10;;;3.50;;
45434;SDS011;31183;47.404;8.500;2024-01-27T09:34:53;6.25;;;4.55;;
45434;SDS011;31183;47.404;8.500;2024-01-27T09:37:20;7.75;;;3.85;;
45434;SDS011;31183;47.404;8.500;2024-01-27T09:39:47;6.88;;;4.40;;
45434;SDS011;31183;47.404;8.500;2024-01-27T09:42:13;7.68;;;4.22;;
45434;SDS011;31183;47.404;8.500;2024-01-27T09:44:43;11.90;;;4.72;;
45434;SDS011;31183;47.404;8.500;2024-01-27T09:47:11;5.78;;;4.05;;
45434;SDS011;31183;47.404;8.500;2024-01-27T09:49:42;8.25;;;4.30;;
45434;SDS011;31183;47.404;8.500;2024-01-27T09:52:09;7.32;;;4.00;;
45434;SDS011;31183;47.404;8.500;2024-01-27T09:54:36;12.45;;;5.32;;
45434;SDS011;31183;47.404;8.500;2024-01-27T09:57:02;9.32;;;4.43;;
45434;SDS011;31183;47.404;8.500;2024-01-27T09:59:29;7.18;;;4.90;;
45434;SDS011;31183;47.404;8.500;2024-01-27T10:01:59;10.00;;;4.38;;
45434;SDS011;31183;47.404;8.500;2024-01-27T10:04:26;8.10;;;4.80;;
45434;SDS011;31183;47.404;8.500;2024-01-27T10:06:54;8.38;;;4.75;;
45434;SDS011;31183;47.404;8.500;2024-01-27T10:09:24;10.00;;;5.85;;
45434;SDS011;31183;47.404;8.500;2024-01-27T10:11:51;8.38;;;4.97;;
45434;SDS011;31183;47.404;8.500;2024-01-27T10:14:18;7.78;;;4.63;;
45434;SDS011;31183;47.404;8.500;2024-01-27T10:16:45;11.57;;;5.63;;
45434;SDS011;31183;47.404;8.500;2024-01-27T10:19:16;8.85;;;6.00;;
45434;SDS011;31183;47.404;8.500;2024-01-27T10:21:45;8.70;;;5.07;;
45434;SDS011;31183;47.404;8.500;2024-01-27T10:24:13;6.65;;;4.63;;
45434;SDS011;31183;47.404;8.500;2024-01-27T10:26:40;7.28;;;4.53;;
45434;SDS011;31183;47.404;8.500;2024-01-27T10:29:07;7.63;;;4.20;;
45434;SDS011;31183;47.404;8.500;2024-01-27T10:31:35;9.10;;;4.70;;
45434;SDS011;31183;47.404;8.500;2024-01-27T10:34:03;5.93;;;4.38;;
45434;SDS011;31183;47.404;8.500;2024-01-27T10:36:39;6.57;;;4.32;;
45434;SDS011;31183;47.404;8.500;2024-01-27T10:39:13;6.72;;;3.97;;
45434;SDS011;31183;47.404;8.500;2024-01-27T10:41:45;4.80;;;3.70;;
45434;SDS011;31183;47.404;8.500;2024-01-27T10:44:19;4.97;;;4.07;;
45434;SDS011;31183;47.404;8.500;2024-01-27T10:46:47;4.85;;;4.07;;
45434;SDS011;31183;47.404;8.500;2024-01-27T10:49:16;5.68;;;3.72;;
45434;SDS011;31183;47.404;8.500;2024-01-27T10:51:44;6.43;;;3.72;;
45434;SDS011;31183;47.404;8.500;2024-01-27T10:54:13;5.75;;;4.30;;
45434;SDS011;31183;47.404;8.500;2024-01-27T10:56:44;5.20;;;4.32;;
45434;SDS011;31183;47.404;8.500;2024-01-27T10:59:12;6.10;;;3.88;;
45434;SDS011;31183;47.404;8.500;2024-01-27T11:01:41;6.07;;;5.10;;
45434;SDS011;31183;47.404;8.500;2024-01-27T11:04:10;6.93;;;5.32;;
45434;SDS011;31183;47.404;8.500;2024-01-27T11:06:37;8.07;;;4.30;;
45434;SDS011;31183;47.404;8.500;2024-01-27T11:09:04;6.65;;;4.57;;
45434;SDS011;31183;47.404;8.500;2024-01-27T11:11:34;8.07;;;4.88;;
45434;SDS011;31183;47.404;8.500;2024-01-27T11:14:01;5.85;;;3.72;;
45434;SDS011;31183;47.404;8.500;2024-01-27T11:16:28;7.40;;;4.22;;
45434;SDS011;31183;47.404;8.500;2024-01-27T11:18:55;5.80;;;4.05;;
45434;SDS011;31183;47.404;8.500;2024-01-27T11:21:22;6.15;;;3.95;;
45434;SDS011;31183;47.404;8.500;2024-01-27T11:23:49;9.35;;;5.07;;
45434;SDS011;31183;47.404;8.500;2024-01-27T11:26:19;9.60;;;3.88;;
45434;SDS011;31183;47.404;8.500;2024-01-27T11:28:48;7.15;;;4.57;;
45434;SDS011;31183;47.404;8.500;2024-01-27T11:31:16;6.20;;;5.28;;
45434;SDS011;31183;47.404;8.500;2024-01-27T11:33:46;6.70;;;4.72;;
45434;SDS011;31183;47.404;8.500;2024-01-27T11:36:24;5.72;;;4.38;;
45434;SDS011;31183;47.404;8.500;2024-01-27T11:38:51;5.72;;;4.30;;
45434;SDS011;31183;47.404;8.500;2024-01-27T11:41:24;4.75;;;4.30;;
45434;SDS011;31183;47.404;8.500;2024-01-27T11:46:22;5.03;;;4.28;;
45434;SDS011;31183;47.404;8.500;2024-01-27T11:48:49;6.22;;;4.45;;
45434;SDS011;31183;47.404;8.500;2024-01-27T11:51:17;7.53;;;4.93;;
45434;SDS011;31183;47.404;8.500;2024-01-27T11:53:45;6.70;;;4.90;;
45434;SDS011;31183;47.404;8.500;2024-01-27T11:56:13;5.95;;;5.15;;
45434;SDS011;31183;47.404;8.500;2024-01-27T11:58:45;7.18;;;5.10;;
45434;SDS011;31183;47.404;8.500;2024-01-27T12:01:14;8.20;;;5.43;;
45434;SDS011;31183;47.404;8.500;2024-01-27T12:03:41;7.95;;;4.97;;
45434;SDS011;31183;47.404;8.500;2024-01-27T12:06:11;10.83;;;5.83;;
45434;SDS011;31183;47.404;8.500;2024-01-27T12:08:40;9.20;;;5.85;;
45434;SDS011;31183;47.404;8.500;2024-01-27T12:11:13;9.93;;;5.93;;
45434;SDS011;31183;47.404;8.500;2024-01-27T12:13:42;9.23;;;5.82;;
45434;SDS011;31183;47.404;8.500;2024-01-27T12:16:09;9.55;;;5.53;;
45434;SDS011;31183;47.404;8.500;2024-01-27T12:18:35;9.95;;;6.60;;
45434;SDS011;31183;47.404;8.500;2024-01-27T12:21:02;7.93;;;5.97;;
45434;SDS011;31183;47.404;8.500;2024-01-27T12:23:29;7.40;;;5.82;;
45434;SDS011;31183;47.404;8.500;2024-01-27T12:25:56;8.30;;;6.45;;
45434;SDS011;31183;47.404;8.500;2024-01-27T12:28:23;6.72;;;5.70;;
45434;SDS011;31183;47.404;8.500;2024-01-27T12:30:50;10.80;;;5.68;;
45434;SDS011;31183;47.404;8.500;2024-01-27T12:33:19;8.13;;;5.22;;
45434;SDS011;31183;47.404;8.500;2024-01-27T12:35:50;7.55;;;4.95;;
45434;SDS011;31183;47.404;8.500;2024-01-27T12:38:17;8.98;;;5.35;;
45434;SDS011;31183;47.404;8.500;2024-01-27T12:40:44;7.22;;;4.88;;
45434;SDS011;31183;47.404;8.500;2024-01-27T12:43:11;7.72;;;4.70;;
45434;SDS011;31183;47.404;8.500;2024-01-27T12:45:38;8.95;;;4.85;;
45434;SDS011;31183;47.404;8.500;2024-01-27T12:48:05;8.63;;;4.93;;
45434;SDS011;31183;47.404;8.500;2024-01-27T12:50:32;7.25;;;5.05;;
45434;SDS011;31183;47.404;8.500;2024-01-27T12:53:00;7.38;;;5.25;;
45434;SDS011;31183;47.404;8.500;2024-01-27T12:55:26;9.48;;;5.30;;
45434;SDS011;31183;47.404;8.500;2024-01-27T12:57:53;7.95;;;4.75;;
45434;SDS011;31183;47.404;8.500;2024-01-27T13:00:20;6.55;;;5.03;;
45434;SDS011;31183;47.404;8.500;2024-01-27T13:02:47;7.65;;;6.22;;
45434;SDS011;31183;47.404;8.500;2024-01-27T13:05:14;8.80;;;5.55;;
45434;SDS011;31183;47.404;8.500;2024-01-27T13:07:41;7.70;;;4.95;;
45434;SDS011;31183;47.404;8.500;2024-01-27T13:10:08;6.60;;;4.60;;
45434;SDS011;31183;47.404;8.500;2024-01-27T13:12:35;11.63;;;4.38;;
45434;SDS011;31183;47.404;8.500;2024-01-27T13:15:02;8.85;;;4.80;;
45434;SDS011;31183;47.404;8.500;2024-01-27T13:17:29;8.98;;;4.32;;
45434;SDS011;31183;47.404;8.500;2024-01-27T13:19:56;6.75;;;4.82;;
45434;SDS011;31183;47.404;8.500;2024-01-27T13:22:22;7.40;;;5.05;;
45434;SDS011;31183;47.404;8.500;2024-01-27T13:24:51;6.22;;;5.00;;
45434;SDS011;31183;47.404;8.500;2024-01-27T13:27:17;7.32;;;5.10;;
45434;SDS011;31183;47.404;8.500;2024-01-27T13:29:44;7.40;;;4.82;;
45434;SDS011;31183;47.404;8.500;2024-01-27T13:32:11;6.15;;;4.88;;
45434;SDS011;31183;47.404;8.500;2024-01-27T13:34:38;8.85;;;5.15;;
45434;SDS011;31183;47.404;8.500;2024-01-27T13:37:05;5.65;;;4.75;;
45434;SDS011;31183;47.404;8.500;2024-01-27T13:39:31;6.68;;;4.57;;
45434;SDS011;31183;47.404;8.500;2024-01-27T13:41:58;6.95;;;4.72;;
45434;SDS011;31183;47.404;8.500;2024-01-27T13:44:26;9.18;;;4.22;;
45434;SDS011;31183;47.404;8.500;2024-01-27T13:46:52;6.30;;;4.68;;
45434;SDS011;31183;47.404;8.500;2024-01-27T13:49:20;13.00;;;5.20;;
45434;SDS011;31183;47.404;8.500;2024-01-27T13:51:47;6.97;;;4.68;;
45434;SDS011;31183;47.404;8.500;2024-01-27T13:54:14;7.18;;;4.75;;
45434;SDS011;31183;47.404;8.500;2024-01-27T13:56:41;7.47;;;4.50;;
45434;SDS011;31183;47.404;8.500;2024-01-27T13:59:07;10.48;;;5.20;;
45434;SDS011;31183;47.404;8.500;2024-01-27T14:01:34;9.63;;;5.25;;
45434;SDS011;31183;47.404;8.500;2024-01-27T14:04:01;8.55;;;4.82;;
45434;SDS011;31183;47.404;8.500;2024-01-27T14:06:28;8.35;;;4.45;;
45434;SDS011;31183;47.404;8.500;2024-01-27T14:08:55;9.10;;;4.53;;
45434;SDS011;31183;47.404;8.500;2024-01-27T14:11:22;8.88;;;5.03;;
45434;SDS011;31183;47.404;8.500;2024-01-27T14:13:48;6.75;;;4.63;;
45434;SDS011;31183;47.404;8.500;2024-01-27T14:16:15;8.75;;;5.07;;
45434;SDS011;31183;47.404;8.500;2024-01-27T14:18:45;7.97;;;5.05;;
45434;SDS011;31183;47.404;8.500;2024-01-27T14:21:12;10.55;;;5.47;;
45434;SDS011;31183;47.404;8.500;2024-01-27T14:23:39;9.75;;;5.63;;
45434;SDS011;31183;47.404;8.500;2024-01-27T14:26:05;7.82;;;4.80;;
45434;SDS011;31183;47.404;8.500;2024-01-27T14:28:34;8.68;;;4.80;;
45434;SDS011;31183;47.404;8.500;2024-01-27T14:31:01;9.93;;;4.60;;
45434;SDS011;31183;47.404;8.500;2024-01-27T14:33:28;9.35;;;4.60;;
45434;SDS011;31183;47.404;8.500;2024-01-27T14:35:54;7.30;;;4.47;;
45434;SDS011;31183;47.404;8.500;2024-01-27T14:38:21;6.45;;;4.80;;
45434;SDS011;31183;47.404;8.500;2024-01-27T14:40:48;9.48;;;5.10;;
45434;SDS011;31183;47.404;8.500;2024-01-27T14:43:15;9.73;;;4.53;;
45434;SDS011;31183;47.404;8.500;2024-01-27T14:45:44;7.88;;;5.15;;
45434;SDS011;31183;47.404;8.500;2024-01-27T14:48:12;6.82;;;4.22;;
45434;SDS011;31183;47.404;8.500;2024-01-27T14:50:40;12.18;;;6.05;;